GB-0384 weather

Kenley Aerodrome
Kenley, England, United Kingdom

Public forecast

Using degrees Celsius for public forecast. Weather courtesy of forecast.io.

METAR (pilot weather report)

Report is more than 2 hours old.

Closest report is London Biggin Hill Airport, 5.1 nm (9.4 km) ENE. Retrieved 2019/03/26 22:20 UTC (2 hours ago):

EGKB 262220Z 20006KT 9999 SCT045 07/02 Q1033

TAF (pilot weather forecast)

Forecast is more than 12 hours old.

Closest forecast is London Biggin Hill Airport, 5.1 nm (9.4 km) ENE. Retrieved 2018/10/15 23:27 UTC (5 months ago):

TAF TAF EGKB 152321Z 1523/1622 CNL